地図

経路データ

SID SEASON NUMBER BASIN SUBBASIN NAME ISO_TIME NATURE LAT LON WMO_WIND WMO_PRES WMO_AGENCY TRACK_TYPE DIST2LAND LANDFALL IFLAG USA_AGENCY USA_ATCF_ID USA_LAT USA_LON USA_RECORD USA_STATUS USA_WIND USA_PRES USA_SSHS USA_R34_NE USA_R34_SE USA_R34_SW USA_R34_NW USA_R50_NE USA_R50_SE USA_R50_SW USA_R50_NW USA_R64_NE USA_R64_SE USA_R64_SW USA_R64_NW USA_POCI USA_ROCI USA_RMW USA_EYE TOKYO_LAT TOKYO_LON TOKYO_GRADE TOKYO_WIND TOKYO_PRES TOKYO_R50_DIR TOKYO_R50_LONG TOKYO_R50_SHORT TOKYO_R30_DIR TOKYO_R30_LONG TOKYO_R30_SHORT TOKYO_LAND CMA_LAT CMA_LON CMA_CAT CMA_WIND CMA_PRES HKO_LAT HKO_LON HKO_CAT HKO_WIND HKO_PRES NEWDELHI_LAT NEWDELHI_LON NEWDELHI_GRADE NEWDELHI_WIND NEWDELHI_PRES NEWDELHI_CI NEWDELHI_DP NEWDELHI_POCI REUNION_LAT REUNION_LON REUNION_TYPE REUNION_WIND REUNION_PRES REUNION_TNUM REUNION_CI REUNION_RMW REUNION_R34_NE REUNION_R34_SE REUNION_R34_SW REUNION_R34_NW REUNION_R50_NE REUNION_R50_SE REUNION_R50_SW REUNION_R50_NW REUNION_R64_NE REUNION_R64_SE REUNION_R64_SW REUNION_R64_NW BOM_LAT BOM_LON BOM_TYPE BOM_WIND BOM_PRES BOM_TNUM BOM_CI BOM_RMW BOM_R34_NE BOM_R34_SE BOM_R34_SW BOM_R34_NW BOM_R50_NE BOM_R50_SE BOM_R50_SW BOM_R50_NW BOM_R64_NE BOM_R64_SE BOM_R64_SW BOM_R64_NW BOM_ROCI BOM_POCI BOM_EYE BOM_POS_METHOD BOM_PRES_METHOD NADI_LAT NADI_LON NADI_CAT NADI_WIND NADI_PRES WELLINGTON_LAT WELLINGTON_LON WELLINGTON_WIND WELLINGTON_PRES DS824_LAT DS824_LON DS824_STAGE DS824_WIND DS824_PRES TD9636_LAT TD9636_LON TD9636_STAGE TD9636_WIND TD9636_PRES TD9635_LAT TD9635_LON TD9635_WIND TD9635_PRES TD9635_ROCI NEUMANN_LAT NEUMANN_LON NEUMANN_CLASS NEUMANN_WIND NEUMANN_PRES MLC_LAT MLC_LON MLC_CLASS MLC_WIND MLC_PRES USA_GUST BOM_GUST BOM_GUST_PER REUNION_GUST REUNION_GUST_PER USA_SEAHGT USA_SEARAD_NE USA_SEARAD_SE USA_SEARAD_SW USA_SEARAD_NW STORM_SPEED STORM_DIR
1879220N21088 1879 10 NI BB NOT_NAMED 1879-08-08 00:00:00 TS 21.0000 88.0000 main 70 70 _________O____ -1 21.0000 88.0000 TC 30 1 264
1879220N21088 1879 10 NI BB NOT_NAMED 1879-08-08 03:00:00 TS 20.9933 87.9317 main 73 73 _________PO___ -1 20.9900 87.8975 TC 30 21.0000 88.0000 1 1 271
1879220N21088 1879 10 NI BB NOT_NAMED 1879-08-08 06:00:00 TS 21.0032 87.8425 main 78 78 _________OP___ -1 21.0000 87.8000 TC 30 21.0079 87.9062 1 2 284
1879220N21088 1879 10 NI BB NOT_NAMED 1879-08-08 09:00:00 TS 21.0340 87.7514 main 78 63 _________PP___ -1 21.0425 87.7075 TC 30 21.0226 87.8099 1 2 292
1879220N21088 1879 10 NI BB NOT_NAMED 1879-08-08 12:00:00 TS 21.0755 87.6543 main 63 56 _________OP___ -1 21.1000 87.6000 TC 30 21.0510 87.7087 1 2 293
1879220N21088 1879 10 NI BB NOT_NAMED 1879-08-08 15:00:00 TS 21.1213 87.5287 main 56 44 _________PO___ -1 21.1425 87.4575 TC 30 21.1000 87.6000 1 3 294
1879220N21088 1879 10 NI BB NOT_NAMED 1879-08-08 18:00:00 TS 21.1864 87.3904 main 44 30 _________OP___ -1 21.2000 87.3000 TC 30 21.1727 87.4807 1 3 302
1879220N21088 1879 10 NI BB NOT_NAMED 1879-08-08 21:00:00 TS 21.2824 87.2551 main 30 10 _________PP___ -1 21.3074 87.1650 TC 30 21.2573 87.3452 1 3 304
1879220N21088 1879 10 NI BB NOT_NAMED 1879-08-09 00:00:00 TS 21.3691 87.0935 main 10 0 _________OP___ -1 21.4000 87.0000 TC 30 21.3383 87.1870 1 4 290
1879220N21088 1879 10 NI BB NOT_NAMED 1879-08-09 03:00:00 TS 21.4075 86.8825 main 0 0 _________PO___ -1 21.4150 86.7649 TC 30 21.4000 87.0000 1 4 275
1879220N21088 1879 10 NI BB NOT_NAMED 1879-08-09 06:00:00 TS 21.4027 86.6392 main 0 0 _________OP___ -1 21.4000 86.5000 TC 30 21.4054 86.7784 1 5 268
1879220N21088 1879 10 NI BB NOT_NAMED 1879-08-09 09:00:00 TS 21.3925 86.3897 main 0 0 _________PP___ -1 21.3925 86.2500 TC 30 21.3926 86.5295 1 5 269
1879220N21088 1879 10 NI BB NOT_NAMED 1879-08-09 12:00:00 TS 21.3917 86.1329 main 0 0 _________OP___ -1 21.4000 86.0000 TC 30 21.3835 86.2659 1 5 273
1879220N21088 1879 10 NI BB NOT_NAMED 1879-08-09 15:00:00 TS 21.4137 85.8750 main 0 0 _________PO___ -1 21.4275 85.7499 TC 30 21.4000 86.0000 1 5 280
1879220N21088 1879 10 NI BB NOT_NAMED 1879-08-09 18:00:00 TS 21.4796 85.6149 main 0 0 _________OP___ -1 21.5000 85.5000 TC 30 21.4591 85.7298 1 5 290
1879220N21088 1879 10 NI BB NOT_NAMED 1879-08-09 21:00:00 TS 21.5913 85.3489 main 0 0 _________PP___ -1 21.6350 85.2351 TC 30 21.5476 85.4627 1 5 298
1879220N21088 1879 10 NI BB NOT_NAMED 1879-08-10 00:00:00 TS 21.7311 85.1071 main 0 0 _________OP___ -1 21.8000 85.0000 TC 30 21.6623 85.2142 1 5 305
1879220N21088 1879 10 NI BB NOT_NAMED 1879-08-10 03:00:00 TS 21.8712 84.9137 main 0 0 _________PO___ -1 21.9425 84.8274 TC 30 21.8000 85.0000 1 4 314
1879220N21088 1879 10 NI BB NOT_NAMED 1879-08-10 06:00:00 TS 22.0286 84.7715 main 0 0 _________OP___ -1 22.1000 84.7000 TC 30 21.9573 84.8430 1 4 326
1879220N21088 1879 10 NI BB NOT_NAMED 1879-08-10 09:00:00 TS 22.2173 84.6599 main 0 0 _________PP___ -1 22.3000 84.5999 TC 30 22.1347 84.7198 1 4 333
1879220N21088 1879 10 NI BB NOT_NAMED 1879-08-10 12:00:00 TS 22.4099 84.5559 main 0 0 _________OP___ -1 22.5000 84.5000 TC 30 22.3198 84.6117 1 4 330
1879220N21088 1879 10 NI BB NOT_NAMED 1879-08-10 15:00:00 TS 22.5788 84.4287 main 0 0 _________PO___ -1 22.6575 84.3575 TC 30 22.5000 84.5000 1 4 324
1879220N21088 1879 10 NI BB NOT_NAMED 1879-08-10 18:00:00 TS 22.7283 84.3027 main 0 0 _________OP___ -1 22.8000 84.2000 TC 30 22.6567 84.4054 1 4 324
1879220N21088 1879 10 NI BB NOT_NAMED 1879-08-10 21:00:00 TS 22.8744 84.1957 main 0 0 _________PP___ -1 22.9423 84.0947 TC 30 22.8066 84.2967 1 4 319
1879220N21088 1879 10 NI BB NOT_NAMED 1879-08-11 00:00:00 TS 23.0266 84.0199 main 0 0 _________OP___ -1 23.1000 83.9000 TC 30 22.9533 84.1397 1 6 306
1879220N21088 1879 10 NI BB NOT_NAMED 1879-08-11 03:00:00 TS 23.2038 83.6976 main 0 0 _________PO___ -1 23.3077 83.4953 TC 30 23.1000 83.9000 1 8 297
1879220N21088 1879 10 NI BB NOT_NAMED 1879-08-11 06:00:00 TS 23.3793 83.2683 main 0 0 _________OP___ -1 23.5000 83.0000 TC 30 23.2586 83.5366 1 9 291
1879220N21088 1879 10 NI BB NOT_NAMED 1879-08-11 09:00:00 TS 23.5190 82.8202 main 0 0 _________PP___ -1 23.6224 82.5499 TC 30 23.4157 83.0905 1 9 287
1879220N21088 1879 10 NI BB NOT_NAMED 1879-08-11 12:00:00 TS 23.6324 82.3495 main 0 0 _________OP___ -1 23.7000 82.1000 TC 30 23.5648 82.5990 1 9 283
1879220N21088 1879 10 NI BB NOT_NAMED 1879-08-11 15:00:00 TS 23.7212 81.8749 main 0 0 _________PO___ -1 23.7424 81.6497 TC 30 23.7000 82.1000 1 9 281
1879220N21088 1879 10 NI BB NOT_NAMED 1879-08-11 18:00:00 TS 23.8033 81.4045 main 0 0 _________OP___ -1 23.8000 81.2000 TC 30 23.8065 81.6091 1 9 283
1879220N21088 1879 10 NI BB NOT_NAMED 1879-08-11 21:00:00 TS 23.9178 80.9187 main 0 0 _________PP___ -1 23.9351 80.7127 TC 30 23.9005 81.1246 1 9 286
1879220N21088 1879 10 NI BB NOT_NAMED 1879-08-12 00:00:00 TS 24.0471 80.4890 main 0 0 _________OP___ -1 24.1000 80.3000 TC 30 23.9941 80.6779 1 7 291
1879220N21088 1879 10 NI BB NOT_NAMED 1879-08-12 03:00:00 TS 24.1749 80.1812 main 0 0 _________PO___ -1 24.2498 80.0623 TC 30 24.1000 80.3000 1 6 299
1879220N21088 1879 10 NI BB NOT_NAMED 1879-08-12 06:00:00 TS 24.3174 79.9639 main 0 0 _________OP___ -1 24.4000 79.9000 TC 30 24.2348 80.0278 1 5 307
1879220N21088 1879 10 NI BB NOT_NAMED 1879-08-12 09:00:00 TS 24.4670 79.7623 main 0 0 _________PP___ -1 24.5500 79.7000 TC 30 24.3840 79.8246 1 5 311
1879220N21088 1879 10 NI BB NOT_NAMED 1879-08-12 12:00:00 TS 24.6206 79.5795 main 0 0 _________OP___ -1 24.7000 79.5000 TC 30 24.5413 79.6591 1 5 313
1879220N21088 1879 10 NI BB NOT_NAMED 1879-08-12 15:00:00 TS 24.7750 79.4000 main 0 0 _________PO___ -1 24.8500 79.2999 TC 30 24.7000 79.5000 1 4 313
1879220N21088 1879 10 NI BB NOT_NAMED 1879-08-12 18:00:00 TS 24.9170 79.2270 main 0 0 _________OP___ -1 25.0000 79.1000 TC 30 24.8548 79.3222 1 4 311
1879220N21088 1879 10 NI BB NOT_NAMED 1879-08-12 21:00:00 TS 25.0634 79.0354 main 0 0 _________PP___ -1 25.1501 78.9001 TC 30 25.0056 79.1255 1 5 309
1879220N21088 1879 10 NI BB NOT_NAMED 1879-08-13 00:00:00 TS 25.2024 78.8441 main 0 0 _________OP___ -1 25.3000 78.7000 TC 30 25.1536 78.9161 1 4 308
1879220N21088 1879 10 NI BB NOT_NAMED 1879-08-13 03:00:00 NR 25.3000 78.7000 main 0 __________O___ -1 TC 25.3000 78.7000 1 3 307

IBTrACS Databaseについて

本データベースは、米国NOAAが公開する1842年以降の世界の熱帯低気圧のベストトラックデータアーカイブInternational Best Track Archive for Climate Stewardship (IBTrACS)を、ウェブで閲覧しやすい形式に変換したものです。

最終更新日:2021-10-21